sensor_id;sensor_type;location;lat;lon;timestamp;P1;durP1;ratioP1;P2;durP2;ratioP2
52668;SDS011;59898;52.786;6.892;2022-12-18T00:02:33;127.05;;;57.40;;
52668;SDS011;59898;52.786;6.892;2022-12-18T00:05:53;147.43;;;63.40;;
52668;SDS011;59898;52.786;6.892;2022-12-18T00:09:14;131.07;;;63.22;;
52668;SDS011;59898;52.786;6.892;2022-12-18T00:12:35;143.13;;;63.58;;
52668;SDS011;59898;52.786;6.892;2022-12-18T00:16:00;149.77;;;64.07;;
52668;SDS011;59898;52.786;6.892;2022-12-18T00:19:25;138.75;;;60.80;;
52668;SDS011;59898;52.786;6.892;2022-12-18T00:22:46;120.20;;;59.92;;
52668;SDS011;59898;52.786;6.892;2022-12-18T00:26:09;119.35;;;58.75;;
52668;SDS011;59898;52.786;6.892;2022-12-18T00:29:38;132.00;;;67.07;;
52668;SDS011;59898;52.786;6.892;2022-12-18T00:32:58;116.85;;;59.40;;
52668;SDS011;59898;52.786;6.892;2022-12-18T00:36:20;117.90;;;56.30;;
52668;SDS011;59898;52.786;6.892;2022-12-18T00:39:47;114.25;;;57.45;;
52668;SDS011;59898;52.786;6.892;2022-12-18T00:43:08;130.35;;;65.55;;
52668;SDS011;59898;52.786;6.892;2022-12-18T00:46:29;129.20;;;61.15;;
52668;SDS011;59898;52.786;6.892;2022-12-18T00:49:49;115.70;;;59.90;;
52668;SDS011;59898;52.786;6.892;2022-12-18T00:53:10;124.30;;;58.72;;
52668;SDS011;59898;52.786;6.892;2022-12-18T00:56:31;112.00;;;54.63;;
52668;SDS011;59898;52.786;6.892;2022-12-18T00:59:52;112.80;;;53.38;;
52668;SDS011;59898;52.786;6.892;2022-12-18T01:03:13;105.78;;;56.30;;
52668;SDS011;59898;52.786;6.892;2022-12-18T01:06:34;115.63;;;55.38;;
52668;SDS011;59898;52.786;6.892;2022-12-18T01:09:55;112.65;;;57.92;;
52668;SDS011;59898;52.786;6.892;2022-12-18T01:13:16;120.30;;;58.33;;
52668;SDS011;59898;52.786;6.892;2022-12-18T01:16:36;108.80;;;55.95;;
52668;SDS011;59898;52.786;6.892;2022-12-18T01:19:57;132.73;;;63.75;;
52668;SDS011;59898;52.786;6.892;2022-12-18T01:23:18;113.97;;;56.78;;
52668;SDS011;59898;52.786;6.892;2022-12-18T01:26:38;135.05;;;65.53;;
52668;SDS011;59898;52.786;6.892;2022-12-18T01:29:59;152.98;;;69.63;;
52668;SDS011;59898;52.786;6.892;2022-12-18T01:33:20;154.93;;;66.13;;
52668;SDS011;59898;52.786;6.892;2022-12-18T01:36:41;141.95;;;67.32;;
52668;SDS011;59898;52.786;6.892;2022-12-18T01:40:01;147.65;;;69.70;;
52668;SDS011;59898;52.786;6.892;2022-12-18T01:43:39;147.50;;;68.53;;
52668;SDS011;59898;52.786;6.892;2022-12-18T01:47:05;149.00;;;70.53;;
52668;SDS011;59898;52.786;6.892;2022-12-18T01:53:55;123.28;;;61.40;;
52668;SDS011;59898;52.786;6.892;2022-12-18T01:57:17;113.43;;;59.10;;
52668;SDS011;59898;52.786;6.892;2022-12-18T02:00:38;119.03;;;56.15;;
52668;SDS011;59898;52.786;6.892;2022-12-18T02:15:13;105.85;;;49.63;;
52668;SDS011;59898;52.786;6.892;2022-12-18T02:18:45;89.15;;;47.38;;
52668;SDS011;59898;52.786;6.892;2022-12-18T02:25:39;85.25;;;50.90;;
52668;SDS011;59898;52.786;6.892;2022-12-18T02:29:05;76.78;;;46.10;;
52668;SDS011;59898;52.786;6.892;2022-12-18T02:32:33;76.40;;;47.00;;
52668;SDS011;59898;52.786;6.892;2022-12-18T02:35:58;77.78;;;45.50;;
52668;SDS011;59898;52.786;6.892;2022-12-18T02:39:21;75.03;;;43.22;;
52668;SDS011;59898;52.786;6.892;2022-12-18T02:42:43;87.45;;;46.75;;
52668;SDS011;59898;52.786;6.892;2022-12-18T02:57:46;91.82;;;47.10;;
52668;SDS011;59898;52.786;6.892;2022-12-18T03:01:21;73.40;;;42.97;;
52668;SDS011;59898;52.786;6.892;2022-12-18T03:04:55;88.53;;;44.70;;
52668;SDS011;59898;52.786;6.892;2022-12-18T03:08:25;85.78;;;46.80;;
52668;SDS011;59898;52.786;6.892;2022-12-18T03:11:54;75.40;;;44.25;;
52668;SDS011;59898;52.786;6.892;2022-12-18T03:15:47;76.32;;;43.92;;
52668;SDS011;59898;52.786;6.892;2022-12-18T03:19:11;70.68;;;39.75;;
52668;SDS011;59898;52.786;6.892;2022-12-18T03:22:36;71.53;;;40.78;;
52668;SDS011;59898;52.786;6.892;2022-12-18T03:25:59;69.27;;;42.53;;
52668;SDS011;59898;52.786;6.892;2022-12-18T03:33:00;77.25;;;41.67;;
52668;SDS011;59898;52.786;6.892;2022-12-18T03:36:27;79.40;;;46.33;;
52668;SDS011;59898;52.786;6.892;2022-12-18T03:39:48;67.57;;;42.20;;
52668;SDS011;59898;52.786;6.892;2022-12-18T03:43:20;69.40;;;40.90;;
52668;SDS011;59898;52.786;6.892;2022-12-18T03:50:22;72.00;;;38.75;;
52668;SDS011;59898;52.786;6.892;2022-12-18T03:54:01;59.38;;;37.10;;
52668;SDS011;59898;52.786;6.892;2022-12-18T03:57:25;60.22;;;39.78;;
52668;SDS011;59898;52.786;6.892;2022-12-18T04:00:48;58.45;;;36.53;;
52668;SDS011;59898;52.786;6.892;2022-12-18T04:04:12;62.35;;;38.35;;
52668;SDS011;59898;52.786;6.892;2022-12-18T04:07:34;61.92;;;37.70;;
52668;SDS011;59898;52.786;6.892;2022-12-18T04:10:56;52.47;;;34.78;;
52668;SDS011;59898;52.786;6.892;2022-12-18T04:14:16;55.53;;;38.22;;
52668;SDS011;59898;52.786;6.892;2022-12-18T04:17:38;56.83;;;35.65;;
52668;SDS011;59898;52.786;6.892;2022-12-18T04:21:03;53.28;;;32.13;;
52668;SDS011;59898;52.786;6.892;2022-12-18T04:24:23;58.35;;;34.95;;
52668;SDS011;59898;52.786;6.892;2022-12-18T04:27:44;51.95;;;33.78;;
52668;SDS011;59898;52.786;6.892;2022-12-18T04:31:05;52.17;;;34.78;;
52668;SDS011;59898;52.786;6.892;2022-12-18T04:34:25;52.47;;;33.67;;
52668;SDS011;59898;52.786;6.892;2022-12-18T04:37:46;50.10;;;33.70;;
52668;SDS011;59898;52.786;6.892;2022-12-18T04:41:07;51.28;;;31.90;;
52668;SDS011;59898;52.786;6.892;2022-12-18T04:44:27;48.35;;;31.50;;
52668;SDS011;59898;52.786;6.892;2022-12-18T04:47:48;46.15;;;30.33;;
52668;SDS011;59898;52.786;6.892;2022-12-18T04:51:08;43.05;;;28.13;;
52668;SDS011;59898;52.786;6.892;2022-12-18T04:54:29;49.05;;;30.45;;
52668;SDS011;59898;52.786;6.892;2022-12-18T04:57:50;49.28;;;32.20;;
52668;SDS011;59898;52.786;6.892;2022-12-18T05:01:12;47.67;;;29.95;;
52668;SDS011;59898;52.786;6.892;2022-12-18T05:04:33;52.10;;;29.55;;
52668;SDS011;59898;52.786;6.892;2022-12-18T05:07:54;38.67;;;27.80;;
52668;SDS011;59898;52.786;6.892;2022-12-18T05:11:15;53.85;;;34.33;;
52668;SDS011;59898;52.786;6.892;2022-12-18T05:14:36;43.33;;;29.20;;
52668;SDS011;59898;52.786;6.892;2022-12-18T05:17:57;44.30;;;32.92;;
52668;SDS011;59898;52.786;6.892;2022-12-18T05:21:18;45.17;;;31.25;;
52668;SDS011;59898;52.786;6.892;2022-12-18T05:24:39;42.80;;;30.85;;
52668;SDS011;59898;52.786;6.892;2022-12-18T05:28:00;46.45;;;30.90;;
52668;SDS011;59898;52.786;6.892;2022-12-18T05:31:20;42.40;;;29.77;;
52668;SDS011;59898;52.786;6.892;2022-12-18T05:34:41;42.45;;;28.92;;
52668;SDS011;59898;52.786;6.892;2022-12-18T05:38:02;45.78;;;31.55;;
52668;SDS011;59898;52.786;6.892;2022-12-18T05:41:22;49.05;;;32.75;;
52668;SDS011;59898;52.786;6.892;2022-12-18T05:44:43;39.38;;;29.48;;
52668;SDS011;59898;52.786;6.892;2022-12-18T05:48:04;41.83;;;30.02;;
52668;SDS011;59898;52.786;6.892;2022-12-18T05:51:25;41.30;;;30.70;;
52668;SDS011;59898;52.786;6.892;2022-12-18T05:54:46;44.15;;;29.88;;
52668;SDS011;59898;52.786;6.892;2022-12-18T05:58:07;37.50;;;27.65;;
52668;SDS011;59898;52.786;6.892;2022-12-18T06:01:29;39.35;;;29.58;;
52668;SDS011;59898;52.786;6.892;2022-12-18T06:04:49;41.40;;;29.00;;
52668;SDS011;59898;52.786;6.892;2022-12-18T06:08:11;36.92;;;28.80;;
52668;SDS011;59898;52.786;6.892;2022-12-18T06:11:32;39.90;;;27.55;;
52668;SDS011;59898;52.786;6.892;2022-12-18T06:14:53;38.45;;;26.00;;
52668;SDS011;59898;52.786;6.892;2022-12-18T06:18:14;35.42;;;26.95;;
52668;SDS011;59898;52.786;6.892;2022-12-18T06:21:34;36.30;;;26.30;;
52668;SDS011;59898;52.786;6.892;2022-12-18T06:24:55;37.92;;;26.65;;
52668;SDS011;59898;52.786;6.892;2022-12-18T06:28:16;40.30;;;27.30;;
52668;SDS011;59898;52.786;6.892;2022-12-18T06:31:37;37.03;;;26.92;;
52668;SDS011;59898;52.786;6.892;2022-12-18T06:34:58;36.08;;;24.38;;
52668;SDS011;59898;52.786;6.892;2022-12-18T06:38:18;38.60;;;27.65;;
52668;SDS011;59898;52.786;6.892;2022-12-18T06:41:39;37.95;;;27.10;;
52668;SDS011;59898;52.786;6.892;2022-12-18T06:44:59;34.17;;;25.70;;
52668;SDS011;59898;52.786;6.892;2022-12-18T06:48:20;34.50;;;26.40;;
52668;SDS011;59898;52.786;6.892;2022-12-18T06:51:41;35.88;;;26.13;;
52668;SDS011;59898;52.786;6.892;2022-12-18T06:55:02;39.08;;;28.13;;
52668;SDS011;59898;52.786;6.892;2022-12-18T06:58:23;37.92;;;27.20;;
52668;SDS011;59898;52.786;6.892;2022-12-18T07:01:44;37.80;;;28.20;;
52668;SDS011;59898;52.786;6.892;2022-12-18T07:05:04;37.33;;;26.55;;
52668;SDS011;59898;52.786;6.892;2022-12-18T07:08:26;34.83;;;26.00;;
52668;SDS011;59898;52.786;6.892;2022-12-18T07:11:46;39.65;;;29.67;;
52668;SDS011;59898;52.786;6.892;2022-12-18T07:15:07;35.58;;;25.75;;
52668;SDS011;59898;52.786;6.892;2022-12-18T07:18:28;36.55;;;26.05;;
52668;SDS011;59898;52.786;6.892;2022-12-18T07:21:49;32.40;;;26.20;;
52668;SDS011;59898;52.786;6.892;2022-12-18T07:25:10;32.55;;;23.65;;
52668;SDS011;59898;52.786;6.892;2022-12-18T07:28:31;32.72;;;24.35;;
52668;SDS011;59898;52.786;6.892;2022-12-18T07:31:53;32.42;;;22.85;;
52668;SDS011;59898;52.786;6.892;2022-12-18T07:35:13;28.80;;;23.95;;
52668;SDS011;59898;52.786;6.892;2022-12-18T07:38:34;31.63;;;22.92;;
52668;SDS011;59898;52.786;6.892;2022-12-18T07:41:55;26.98;;;20.50;;
52668;SDS011;59898;52.786;6.892;2022-12-18T07:45:35;30.20;;;22.38;;
52668;SDS011;59898;52.786;6.892;2022-12-18T07:48:56;27.55;;;20.42;;
52668;SDS011;59898;52.786;6.892;2022-12-18T07:52:17;24.25;;;17.77;;
52668;SDS011;59898;52.786;6.892;2022-12-18T07:55:37;24.85;;;20.13;;
52668;SDS011;59898;52.786;6.892;2022-12-18T07:58:58;25.73;;;17.17;;
52668;SDS011;59898;52.786;6.892;2022-12-18T08:02:19;25.77;;;20.27;;
52668;SDS011;59898;52.786;6.892;2022-12-18T08:05:40;23.52;;;18.55;;
52668;SDS011;59898;52.786;6.892;2022-12-18T08:09:00;28.33;;;17.55;;
52668;SDS011;59898;52.786;6.892;2022-12-18T08:12:21;20.00;;;15.85;;
52668;SDS011;59898;52.786;6.892;2022-12-18T08:15:42;22.80;;;17.50;;
52668;SDS011;59898;52.786;6.892;2022-12-18T08:19:03;21.20;;;14.10;;
52668;SDS011;59898;52.786;6.892;2022-12-18T08:22:23;19.50;;;15.55;;
52668;SDS011;59898;52.786;6.892;2022-12-18T08:25:44;17.13;;;15.35;;
52668;SDS011;59898;52.786;6.892;2022-12-18T08:29:05;20.42;;;14.15;;
52668;SDS011;59898;52.786;6.892;2022-12-18T08:32:26;20.42;;;14.50;;
52668;SDS011;59898;52.786;6.892;2022-12-18T08:35:48;17.30;;;14.35;;
52668;SDS011;59898;52.786;6.892;2022-12-18T08:39:08;17.92;;;14.55;;
52668;SDS011;59898;52.786;6.892;2022-12-18T08:42:29;19.05;;;14.15;;
52668;SDS011;59898;52.786;6.892;2022-12-18T08:46:08;16.80;;;13.02;;
52668;SDS011;59898;52.786;6.892;2022-12-18T08:49:29;15.63;;;12.40;;
52668;SDS011;59898;52.786;6.892;2022-12-18T08:52:50;20.65;;;13.13;;
52668;SDS011;59898;52.786;6.892;2022-12-18T08:56:11;16.15;;;11.93;;
52668;SDS011;59898;52.786;6.892;2022-12-18T08:59:32;17.98;;;13.02;;
52668;SDS011;59898;52.786;6.892;2022-12-18T09:02:53;15.70;;;11.50;;
52668;SDS011;59898;52.786;6.892;2022-12-18T09:06:17;13.65;;;11.25;;
52668;SDS011;59898;52.786;6.892;2022-12-18T09:09:40;15.32;;;11.45;;
52668;SDS011;59898;52.786;6.892;2022-12-18T09:13:01;14.48;;;10.68;;
52668;SDS011;59898;52.786;6.892;2022-12-18T09:16:22;13.50;;;10.23;;
52668;SDS011;59898;52.786;6.892;2022-12-18T09:19:44;10.13;;;8.63;;
52668;SDS011;59898;52.786;6.892;2022-12-18T09:23:05;12.57;;;9.07;;
52668;SDS011;59898;52.786;6.892;2022-12-18T09:26:27;11.07;;;9.55;;
52668;SDS011;59898;52.786;6.892;2022-12-18T09:29:47;10.30;;;9.00;;
52668;SDS011;59898;52.786;6.892;2022-12-18T09:33:08;10.38;;;9.23;;
52668;SDS011;59898;52.786;6.892;2022-12-18T09:36:29;11.75;;;9.73;;
52668;SDS011;59898;52.786;6.892;2022-12-18T09:39:49;10.23;;;8.32;;
52668;SDS011;59898;52.786;6.892;2022-12-18T09:43:14;12.50;;;8.73;;
52668;SDS011;59898;52.786;6.892;2022-12-18T09:47:04;12.55;;;8.32;;
52668;SDS011;59898;52.786;6.892;2022-12-18T09:50:35;12.57;;;7.95;;
52668;SDS011;59898;52.786;6.892;2022-12-18T09:54:42;10.65;;;7.10;;
52668;SDS011;59898;52.786;6.892;2022-12-18T09:57:57;9.30;;;7.63;;
52668;SDS011;59898;52.786;6.892;2022-12-18T10:01:25;7.65;;;6.90;;
52668;SDS011;59898;52.786;6.892;2022-12-18T10:15:44;14.55;;;13.20;;
52668;SDS011;59898;52.786;6.892;2022-12-18T10:19:20;23.27;;;21.05;;
52668;SDS011;59898;52.786;6.892;2022-12-18T10:23:02;13.93;;;12.57;;
52668;SDS011;59898;52.786;6.892;2022-12-18T10:26:32;8.98;;;7.85;;
52668;SDS011;59898;52.786;6.892;2022-12-18T10:29:53;9.63;;;7.40;;
52668;SDS011;59898;52.786;6.892;2022-12-18T10:33:15;8.80;;;7.28;;
52668;SDS011;59898;52.786;6.892;2022-12-18T10:36:38;11.15;;;8.35;;
52668;SDS011;59898;52.786;6.892;2022-12-18T10:40:13;12.90;;;7.68;;
52668;SDS011;59898;52.786;6.892;2022-12-18T10:43:36;11.38;;;7.72;;
52668;SDS011;59898;52.786;6.892;2022-12-18T10:47:02;9.70;;;7.93;;
52668;SDS011;59898;52.786;6.892;2022-12-18T10:50:33;10.63;;;7.53;;
52668;SDS011;59898;52.786;6.892;2022-12-18T10:53:57;10.90;;;7.47;;
52668;SDS011;59898;52.786;6.892;2022-12-18T11:00:46;11.95;;;7.68;;
52668;SDS011;59898;52.786;6.892;2022-12-18T11:04:22;12.60;;;8.10;;
52668;SDS011;59898;52.786;6.892;2022-12-18T11:11:22;12.38;;;7.75;;
52668;SDS011;59898;52.786;6.892;2022-12-18T11:18:04;11.27;;;7.82;;
52668;SDS011;59898;52.786;6.892;2022-12-18T11:21:24;12.20;;;7.78;;
52668;SDS011;59898;52.786;6.892;2022-12-18T11:24:52;9.68;;;8.13;;
52668;SDS011;59898;52.786;6.892;2022-12-18T11:39:17;9.82;;;7.47;;
52668;SDS011;59898;52.786;6.892;2022-12-18T11:42:54;12.38;;;8.13;;
52668;SDS011;59898;52.786;6.892;2022-12-18T11:46:30;10.27;;;6.72;;
52668;SDS011;59898;52.786;6.892;2022-12-18T11:50:00;12.38;;;7.47;;
52668;SDS011;59898;52.786;6.892;2022-12-18T11:53:23;9.75;;;7.45;;
52668;SDS011;59898;52.786;6.892;2022-12-18T11:57:04;11.77;;;8.88;;
52668;SDS011;59898;52.786;6.892;2022-12-18T12:00:35;9.35;;;7.07;;
52668;SDS011;59898;52.786;6.892;2022-12-18T12:07:57;11.65;;;8.35;;
52668;SDS011;59898;52.786;6.892;2022-12-18T12:15:20;10.70;;;8.27;;
52668;SDS011;59898;52.786;6.892;2022-12-18T12:26:06;10.50;;;8.15;;
52668;SDS011;59898;52.786;6.892;2022-12-18T12:33:17;11.55;;;7.43;;
52668;SDS011;59898;52.786;6.892;2022-12-18T12:40:28;9.95;;;7.63;;
52668;SDS011;59898;52.786;6.892;2022-12-18T12:43:52;12.43;;;7.85;;
52668;SDS011;59898;52.786;6.892;2022-12-18T12:47:23;12.18;;;7.55;;
52668;SDS011;59898;52.786;6.892;2022-12-18T12:50:47;11.55;;;8.10;;
52668;SDS011;59898;52.786;6.892;2022-12-18T12:54:14;10.70;;;8.47;;
52668;SDS011;59898;52.786;6.892;2022-12-18T12:57:40;15.85;;;8.32;;
52668;SDS011;59898;52.786;6.892;2022-12-18T13:01:10;12.27;;;8.27;;
52668;SDS011;59898;52.786;6.892;2022-12-18T13:04:38;13.43;;;8.82;;
52668;SDS011;59898;52.786;6.892;2022-12-18T13:08:27;10.10;;;8.25;;
52668;SDS011;59898;52.786;6.892;2022-12-18T13:11:49;12.73;;;7.32;;
52668;SDS011;59898;52.786;6.892;2022-12-18T13:19:18;9.20;;;7.28;;
52668;SDS011;59898;52.786;6.892;2022-12-18T13:22:47;14.85;;;8.63;;
52668;SDS011;59898;52.786;6.892;2022-12-18T13:29:43;13.30;;;9.60;;
52668;SDS011;59898;52.786;6.892;2022-12-18T13:36:36;11.48;;;7.70;;
52668;SDS011;59898;52.786;6.892;2022-12-18T13:39:57;11.95;;;7.97;;
52668;SDS011;59898;52.786;6.892;2022-12-18T13:46:42;10.45;;;7.55;;
52668;SDS011;59898;52.786;6.892;2022-12-18T13:50:22;13.65;;;8.75;;
52668;SDS011;59898;52.786;6.892;2022-12-18T13:53:47;15.38;;;9.35;;
52668;SDS011;59898;52.786;6.892;2022-12-18T13:57:28;15.68;;;7.85;;
52668;SDS011;59898;52.786;6.892;2022-12-18T14:00:53;14.95;;;10.25;;
52668;SDS011;59898;52.786;6.892;2022-12-18T14:04:18;13.48;;;8.70;;
52668;SDS011;59898;52.786;6.892;2022-12-18T14:07:42;11.65;;;8.85;;
52668;SDS011;59898;52.786;6.892;2022-12-18T14:11:04;13.88;;;10.18;;
52668;SDS011;59898;52.786;6.892;2022-12-18T14:14:26;10.70;;;8.95;;
52668;SDS011;59898;52.786;6.892;2022-12-18T14:17:49;14.80;;;9.18;;
52668;SDS011;59898;52.786;6.892;2022-12-18T14:24:43;15.80;;;9.18;;
52668;SDS011;59898;52.786;6.892;2022-12-18T14:31:33;15.70;;;9.57;;
52668;SDS011;59898;52.786;6.892;2022-12-18T14:34:54;13.73;;;9.35;;
52668;SDS011;59898;52.786;6.892;2022-12-18T14:41:48;13.82;;;9.63;;
52668;SDS011;59898;52.786;6.892;2022-12-18T14:48:52;13.90;;;9.38;;
52668;SDS011;59898;52.786;6.892;2022-12-18T14:52:23;16.08;;;10.50;;
52668;SDS011;59898;52.786;6.892;2022-12-18T14:55:47;17.80;;;9.88;;
52668;SDS011;59898;52.786;6.892;2022-12-18T14:59:16;15.77;;;9.88;;
52668;SDS011;59898;52.786;6.892;2022-12-18T15:02:42;16.65;;;11.10;;
52668;SDS011;59898;52.786;6.892;2022-12-18T15:13:31;15.48;;;9.68;;
52668;SDS011;59898;52.786;6.892;2022-12-18T15:16:53;17.90;;;10.25;;
52668;SDS011;59898;52.786;6.892;2022-12-18T15:20:14;13.95;;;9.82;;
52668;SDS011;59898;52.786;6.892;2022-12-18T15:27:05;14.00;;;9.90;;
52668;SDS011;59898;52.786;6.892;2022-12-18T15:30:57;15.68;;;10.38;;
52668;SDS011;59898;52.786;6.892;2022-12-18T15:34:38;15.15;;;10.55;;
52668;SDS011;59898;52.786;6.892;2022-12-18T15:37:58;15.82;;;10.68;;
52668;SDS011;59898;52.786;6.892;2022-12-18T15:41:20;13.43;;;9.77;;
52668;SDS011;59898;52.786;6.892;2022-12-18T15:44:41;16.60;;;9.90;;
52668;SDS011;59898;52.786;6.892;2022-12-18T15:48:38;12.02;;;9.45;;
52668;SDS011;59898;52.786;6.892;2022-12-18T15:51:53;21.98;;;10.77;;
52668;SDS011;59898;52.786;6.892;2022-12-18T15:55:19;13.57;;;10.05;;
52668;SDS011;59898;52.786;6.892;2022-12-18T15:58:59;18.70;;;10.75;;
52668;SDS011;59898;52.786;6.892;2022-12-18T16:02:23;14.52;;;9.93;;
52668;SDS011;59898;52.786;6.892;2022-12-18T16:05:44;15.52;;;10.50;;
52668;SDS011;59898;52.786;6.892;2022-12-18T16:09:05;14.70;;;9.48;;
52668;SDS011;59898;52.786;6.892;2022-12-18T16:12:25;17.60;;;10.73;;
52668;SDS011;59898;52.786;6.892;2022-12-18T16:15:46;13.52;;;10.30;;
52668;SDS011;59898;52.786;6.892;2022-12-18T16:19:07;13.05;;;8.88;;
52668;SDS011;59898;52.786;6.892;2022-12-18T16:22:28;13.15;;;8.98;;
52668;SDS011;59898;52.786;6.892;2022-12-18T16:25:50;12.95;;;9.32;;
52668;SDS011;59898;52.786;6.892;2022-12-18T16:29:11;15.60;;;10.02;;
52668;SDS011;59898;52.786;6.892;2022-12-18T16:32:32;13.82;;;10.15;;
52668;SDS011;59898;52.786;6.892;2022-12-18T16:35:52;16.17;;;9.90;;
52668;SDS011;59898;52.786;6.892;2022-12-18T16:39:13;13.50;;;9.98;;
52668;SDS011;59898;52.786;6.892;2022-12-18T16:42:35;20.50;;;10.90;;
52668;SDS011;59898;52.786;6.892;2022-12-18T16:45:58;13.27;;;9.60;;
52668;SDS011;59898;52.786;6.892;2022-12-18T16:49:19;15.33;;;10.30;;
52668;SDS011;59898;52.786;6.892;2022-12-18T16:52:40;14.02;;;9.55;;
52668;SDS011;59898;52.786;6.892;2022-12-18T16:56:00;15.73;;;9.25;;
52668;SDS011;59898;52.786;6.892;2022-12-18T16:59:21;14.35;;;9.63;;
52668;SDS011;59898;52.786;6.892;2022-12-18T17:02:42;16.98;;;9.88;;
52668;SDS011;59898;52.786;6.892;2022-12-18T17:06:03;12.02;;;9.13;;
52668;SDS011;59898;52.786;6.892;2022-12-18T17:09:25;13.02;;;9.20;;
52668;SDS011;59898;52.786;6.892;2022-12-18T17:12:45;13.90;;;9.38;;
52668;SDS011;59898;52.786;6.892;2022-12-18T17:16:07;14.65;;;9.93;;
52668;SDS011;59898;52.786;6.892;2022-12-18T17:19:28;11.85;;;8.43;;
52668;SDS011;59898;52.786;6.892;2022-12-18T17:22:49;12.35;;;8.75;;
52668;SDS011;59898;52.786;6.892;2022-12-18T17:26:11;11.25;;;9.48;;
52668;SDS011;59898;52.786;6.892;2022-12-18T17:29:32;15.10;;;9.30;;
52668;SDS011;59898;52.786;6.892;2022-12-18T17:32:53;14.18;;;9.48;;
52668;SDS011;59898;52.786;6.892;2022-12-18T17:36:14;13.73;;;9.13;;
52668;SDS011;59898;52.786;6.892;2022-12-18T17:39:35;14.30;;;9.40;;
52668;SDS011;59898;52.786;6.892;2022-12-18T17:42:56;9.02;;;7.05;;
52668;SDS011;59898;52.786;6.892;2022-12-18T17:46:17;12.40;;;7.95;;
52668;SDS011;59898;52.786;6.892;2022-12-18T17:49:38;14.98;;;9.32;;
52668;SDS011;59898;52.786;6.892;2022-12-18T17:52:59;12.23;;;8.35;;
52668;SDS011;59898;52.786;6.892;2022-12-18T17:56:21;10.57;;;7.60;;
52668;SDS011;59898;52.786;6.892;2022-12-18T17:59:42;12.93;;;7.60;;
52668;SDS011;59898;52.786;6.892;2022-12-18T18:03:03;13.88;;;8.70;;
52668;SDS011;59898;52.786;6.892;2022-12-18T18:06:24;12.60;;;7.50;;
52668;SDS011;59898;52.786;6.892;2022-12-18T18:09:45;14.05;;;9.80;;
52668;SDS011;59898;52.786;6.892;2022-12-18T18:13:08;17.00;;;9.27;;
52668;SDS011;59898;52.786;6.892;2022-12-18T18:16:58;13.23;;;8.80;;
52668;SDS011;59898;52.786;6.892;2022-12-18T18:20:19;11.55;;;8.40;;
52668;SDS011;59898;52.786;6.892;2022-12-18T18:23:39;12.15;;;7.57;;
52668;SDS011;59898;52.786;6.892;2022-12-18T18:27:00;11.02;;;7.07;;
52668;SDS011;59898;52.786;6.892;2022-12-18T18:30:21;12.50;;;7.32;;
52668;SDS011;59898;52.786;6.892;2022-12-18T18:33:41;12.50;;;8.15;;
52668;SDS011;59898;52.786;6.892;2022-12-18T18:37:02;14.63;;;7.88;;
52668;SDS011;59898;52.786;6.892;2022-12-18T18:40:23;11.05;;;7.95;;
52668;SDS011;59898;52.786;6.892;2022-12-18T18:43:43;12.02;;;8.25;;
52668;SDS011;59898;52.786;6.892;2022-12-18T18:47:04;11.07;;;7.82;;
52668;SDS011;59898;52.786;6.892;2022-12-18T18:50:25;13.35;;;9.20;;
52668;SDS011;59898;52.786;6.892;2022-12-18T18:53:46;14.02;;;8.70;;
52668;SDS011;59898;52.786;6.892;2022-12-18T18:57:08;12.52;;;8.27;;
52668;SDS011;59898;52.786;6.892;2022-12-18T19:00:30;13.00;;;9.85;;
52668;SDS011;59898;52.786;6.892;2022-12-18T19:03:51;12.43;;;8.85;;
52668;SDS011;59898;52.786;6.892;2022-12-18T19:07:14;12.13;;;8.70;;
52668;SDS011;59898;52.786;6.892;2022-12-18T19:10:38;11.45;;;7.13;;
52668;SDS011;59898;52.786;6.892;2022-12-18T19:14:02;12.90;;;9.30;;
52668;SDS011;59898;52.786;6.892;2022-12-18T19:17:24;10.32;;;7.88;;
52668;SDS011;59898;52.786;6.892;2022-12-18T19:20:52;13.00;;;8.63;;
52668;SDS011;59898;52.786;6.892;2022-12-18T19:24:17;11.63;;;8.07;;
52668;SDS011;59898;52.786;6.892;2022-12-18T19:27:37;11.68;;;7.63;;
52668;SDS011;59898;52.786;6.892;2022-12-18T19:30:59;15.63;;;9.45;;
52668;SDS011;59898;52.786;6.892;2022-12-18T19:34:22;11.73;;;8.65;;
52668;SDS011;59898;52.786;6.892;2022-12-18T19:37:42;10.90;;;8.52;;
52668;SDS011;59898;52.786;6.892;2022-12-18T19:41:06;14.30;;;8.65;;
52668;SDS011;59898;52.786;6.892;2022-12-18T19:44:27;13.32;;;9.05;;
52668;SDS011;59898;52.786;6.892;2022-12-18T19:47:48;11.45;;;8.80;;
52668;SDS011;59898;52.786;6.892;2022-12-18T19:51:10;13.52;;;8.02;;
52668;SDS011;59898;52.786;6.892;2022-12-18T19:54:38;13.38;;;7.95;;
52668;SDS011;59898;52.786;6.892;2022-12-18T19:57:59;14.70;;;9.27;;
52668;SDS011;59898;52.786;6.892;2022-12-18T20:01:20;13.65;;;9.18;;
52668;SDS011;59898;52.786;6.892;2022-12-18T20:04:42;10.43;;;7.82;;
52668;SDS011;59898;52.786;6.892;2022-12-18T20:08:03;11.35;;;7.13;;
52668;SDS011;59898;52.786;6.892;2022-12-18T20:11:24;16.35;;;9.73;;
52668;SDS011;59898;52.786;6.892;2022-12-18T20:14:45;15.98;;;9.82;;
52668;SDS011;59898;52.786;6.892;2022-12-18T20:18:05;16.52;;;10.75;;
52668;SDS011;59898;52.786;6.892;2022-12-18T20:21:28;13.35;;;9.40;;
52668;SDS011;59898;52.786;6.892;2022-12-18T20:24:49;11.55;;;8.68;;
52668;SDS011;59898;52.786;6.892;2022-12-18T20:28:10;17.45;;;9.35;;
52668;SDS011;59898;52.786;6.892;2022-12-18T20:31:31;14.95;;;10.00;;
52668;SDS011;59898;52.786;6.892;2022-12-18T20:34:51;12.35;;;8.68;;
52668;SDS011;59898;52.786;6.892;2022-12-18T20:38:12;13.07;;;8.85;;
52668;SDS011;59898;52.786;6.892;2022-12-18T20:41:33;13.10;;;8.88;;
52668;SDS011;59898;52.786;6.892;2022-12-18T20:44:53;15.65;;;9.88;;
52668;SDS011;59898;52.786;6.892;2022-12-18T20:48:14;15.95;;;9.93;;
52668;SDS011;59898;52.786;6.892;2022-12-18T20:51:35;14.63;;;10.68;;
52668;SDS011;59898;52.786;6.892;2022-12-18T20:54:56;16.40;;;9.98;;
52668;SDS011;59898;52.786;6.892;2022-12-18T20:58:17;14.27;;;10.02;;
52668;SDS011;59898;52.786;6.892;2022-12-18T21:01:38;18.02;;;12.07;;
52668;SDS011;59898;52.786;6.892;2022-12-18T21:04:59;14.57;;;9.38;;
52668;SDS011;59898;52.786;6.892;2022-12-18T21:08:19;14.13;;;10.57;;
52668;SDS011;59898;52.786;6.892;2022-12-18T21:11:40;24.27;;;12.18;;
52668;SDS011;59898;52.786;6.892;2022-12-18T21:15:19;17.17;;;11.63;;
52668;SDS011;59898;52.786;6.892;2022-12-18T21:18:40;18.48;;;12.10;;
52668;SDS011;59898;52.786;6.892;2022-12-18T21:22:00;19.25;;;11.57;;
52668;SDS011;59898;52.786;6.892;2022-12-18T21:25:22;19.88;;;13.20;;
52668;SDS011;59898;52.786;6.892;2022-12-18T21:28:42;16.77;;;10.30;;
52668;SDS011;59898;52.786;6.892;2022-12-18T21:32:03;19.38;;;11.15;;
52668;SDS011;59898;52.786;6.892;2022-12-18T21:35:24;18.48;;;12.93;;
52668;SDS011;59898;52.786;6.892;2022-12-18T21:38:45;23.60;;;12.52;;
52668;SDS011;59898;52.786;6.892;2022-12-18T21:42:06;16.17;;;11.40;;
52668;SDS011;59898;52.786;6.892;2022-12-18T21:45:47;14.77;;;10.23;;
52668;SDS011;59898;52.786;6.892;2022-12-18T21:49:08;21.23;;;13.57;;
52668;SDS011;59898;52.786;6.892;2022-12-18T21:52:30;16.67;;;10.63;;
52668;SDS011;59898;52.786;6.892;2022-12-18T21:55:56;20.98;;;14.80;;
52668;SDS011;59898;52.786;6.892;2022-12-18T22:02:41;26.23;;;16.13;;
52668;SDS011;59898;52.786;6.892;2022-12-18T22:06:02;25.23;;;15.98;;
52668;SDS011;59898;52.786;6.892;2022-12-18T22:09:24;20.55;;;13.80;;
52668;SDS011;59898;52.786;6.892;2022-12-18T22:12:44;25.98;;;16.30;;